createdAt,value
2019-01-12T00:02:09.661Z,100524.05
2019-01-12T00:04:37.388Z,100524.05
2019-01-12T00:07:23.894Z,100511.77
2019-01-12T00:10:10.372Z,100515.73
2019-01-12T00:12:57.331Z,100515.73
2019-01-12T00:15:24.985Z,100518.94
2019-01-12T00:17:53.186Z,100509.68
2019-01-12T00:20:21.220Z,100513.34
2019-01-12T00:22:48.964Z,100514.21
2019-01-12T00:25:16.712Z,100512.50
2019-01-12T00:27:44.414Z,100512.50
2019-01-12T00:30:12.491Z,100512.89
2019-01-12T00:32:41.076Z,100509.75
2019-01-12T00:35:08.751Z,100512.13
2019-01-12T00:37:36.438Z,100513.83
2019-01-12T00:40:23.352Z,100503.25
2019-01-12T00:42:51.399Z,100505.89
2019-01-12T00:45:38.174Z,100509.38
2019-01-12T00:48:05.871Z,100509.38
2019-01-12T00:50:52.602Z,100509.94
2019-01-12T00:53:20.278Z,100509.94
2019-01-12T00:55:48.411Z,100504.89
2019-01-12T00:58:16.135Z,100504.52
2019-01-12T01:01:02.654Z,100506.29
2019-01-12T01:03:30.279Z,100506.29
2019-01-12T01:06:16.811Z,100511.58
2019-01-12T01:08:44.446Z,100511.58
2019-01-12T01:11:12.192Z,100505.45
2019-01-12T01:13:40.192Z,100505.45
2019-01-12T01:16:07.885Z,100488.79
2019-01-12T01:18:35.522Z,100488.79
2019-01-12T01:21:22.283Z,100502.88
2019-01-12T01:24:08.746Z,100497.11
2019-01-12T01:26:36.428Z,100497.11
2019-01-12T01:29:22.886Z,100502.88
2019-01-12T01:31:50.612Z,100511.75
2019-01-12T01:34:37.085Z,100505.59
2019-01-12T01:37:23.616Z,100507.41
2019-01-12T01:40:10.330Z,100503.06
2019-01-12T01:42:38.029Z,100503.06
2019-01-12T01:45:05.692Z,100512.70
2019-01-12T01:47:33.313Z,100512.70
2019-01-12T01:50:19.817Z,100501.73
2019-01-12T01:52:48.368Z,100511.06
2019-01-12T01:55:16.829Z,100517.30
2019-01-12T01:58:03.440Z,100517.30
2019-01-12T02:00:49.952Z,100514.34
2019-01-12T02:03:36.463Z,100514.34
2019-01-12T02:06:23.025Z,100507.24
2019-01-12T02:08:50.688Z,100507.73
2019-01-12T02:11:18.702Z,100507.73
2019-01-12T02:13:46.371Z,100501.57
2019-01-12T02:16:14.454Z,100488.84
2019-01-12T02:18:42.507Z,100489.29
2019-01-12T02:21:28.998Z,100481.36
2019-01-12T02:23:56.675Z,100487.03
2019-01-12T02:26:43.226Z,100487.03
2019-01-12T02:29:10.848Z,100488.34
2019-01-12T02:31:38.491Z,100485.70
2019-01-12T02:34:25.636Z,100487.89
2019-01-12T02:36:53.644Z,100487.03
2019-01-12T02:39:21.366Z,100482.22
2019-01-12T02:42:07.944Z,100471.64
2019-01-12T02:44:35.611Z,100471.64
2019-01-12T02:47:03.277Z,100475.61
2019-01-12T02:49:30.978Z,100476.06
2019-01-12T02:52:17.467Z,100477.46
2019-01-12T02:54:45.640Z,100477.46
2019-01-12T02:57:14.220Z,100472.66
2019-01-12T03:00:00.673Z,100469.63
2019-01-12T03:02:28.395Z,100469.63
2019-01-12T03:05:15.182Z,100455.55
2019-01-12T03:07:43.169Z,100458.12
2019-01-12T03:10:29.957Z,100455.92
2019-01-12T03:13:16.501Z,100457.73
2019-01-12T03:15:44.125Z,100459.44
2019-01-12T03:18:30.682Z,100455.92
2019-01-12T03:20:58.353Z,100455.92
2019-01-12T03:23:26.016Z,100446.67
2019-01-12T03:25:53.736Z,100448.48
2019-01-12T03:28:40.246Z,100447.61
2019-01-12T03:31:07.873Z,100448.09
2019-01-12T03:33:36.081Z,100440.62
2019-01-12T03:36:04.101Z,100434.88
2019-01-12T03:38:50.642Z,100429.48
2019-01-12T03:41:37.356Z,100431.19
2019-01-12T03:44:23.898Z,100429.41
2019-01-12T03:46:52.173Z,100429.41
2019-01-12T03:49:21.315Z,100425.44
2019-01-12T03:51:49.079Z,100430.73
2019-01-12T03:54:16.750Z,100419.39
2019-01-12T03:56:44.483Z,100419.77
2019-01-12T03:59:12.409Z,100419.39
2019-01-12T04:01:58.950Z,100415.05
2019-01-12T04:04:26.589Z,100414.25
2019-01-12T04:07:13.116Z,100412.55
2019-01-12T04:09:59.565Z,100417.83
2019-01-12T04:12:46.354Z,100408.69
2019-01-12T04:15:14.106Z,100403.40
2019-01-12T04:17:41.784Z,100406.95
2019-01-12T04:20:09.816Z,100406.95
2019-01-12T04:22:37.829Z,100399.89
2019-01-12T04:25:24.283Z,100399.81
2019-01-12T04:28:11.062Z,100395.36
2019-01-12T04:30:38.721Z,100395.36
2019-01-12T04:33:06.418Z,100403.29
2019-01-12T04:35:34.050Z,100391.88
2019-01-12T04:38:20.600Z,100390.07
2019-01-12T04:40:48.265Z,100390.07
2019-01-12T04:43:15.923Z,100393.58
2019-01-12T04:46:02.460Z,100392.64
2019-01-12T04:48:49.006Z,100386.97
2019-01-12T04:51:35.717Z,100387.91
2019-01-12T04:54:22.229Z,100385.73
2019-01-12T04:56:49.910Z,100385.73
2019-01-12T04:59:36.417Z,100391.09
2019-01-12T05:02:06.789Z,100392.90
2019-01-12T05:04:34.518Z,100391.58
2019-01-12T05:07:20.991Z,100385.04
2019-01-12T05:09:48.689Z,100389.08
2019-01-12T05:12:35.400Z,100390.02
2019-01-12T05:15:03.145Z,100389.56
2019-01-12T05:17:30.903Z,100390.51
2019-01-12T05:20:17.815Z,100390.02
2019-01-12T05:22:45.551Z,100390.02
2019-01-12T05:25:13.183Z,100394.47
2019-01-12T05:27:59.732Z,100390.20
2019-01-12T05:30:27.401Z,100390.20
2019-01-12T05:33:14.174Z,100397.75
2019-01-12T05:35:41.836Z,100399.14
2019-01-12T05:38:09.567Z,100399.14
2019-01-12T05:40:37.203Z,100389.97
2019-01-12T05:43:05.200Z,100394.11
2019-01-12T05:45:32.831Z,100393.73
2019-01-12T05:48:00.578Z,100395.61
2019-01-12T05:50:28.272Z,100400.97
2019-01-12T05:53:14.710Z,100398.41
2019-01-12T05:55:42.410Z,100390.03
2019-01-12T05:58:10.088Z,100389.27
2019-01-12T06:00:37.792Z,100389.27
2019-01-12T06:03:24.266Z,100387.19
2019-01-12T06:05:51.963Z,100399.08
2019-01-12T06:08:19.620Z,100399.08
2019-01-12T06:11:06.165Z,100399.46
2019-01-12T06:13:33.797Z,100389.34
2019-01-12T06:16:01.545Z,100398.39
2019-01-12T06:18:48.020Z,100392.17
2019-01-12T06:21:15.755Z,100392.17
2019-01-12T06:23:43.409Z,100396.17
2019-01-12T06:26:11.071Z,100389.67
2019-01-12T06:28:38.791Z,100383.14
2019-01-12T06:31:06.561Z,100377.09
2019-01-12T06:36:20.951Z,100368.30
2019-01-12T06:38:48.868Z,100368.68
2019-01-12T06:41:35.370Z,100362.00
2019-01-12T06:44:03.095Z,100362.00
2019-01-12T06:46:49.615Z,100363.63
2019-01-12T06:49:17.258Z,100363.63
2019-01-12T06:51:44.985Z,100357.41
2019-01-12T06:54:31.700Z,100357.83
2019-01-12T06:56:59.423Z,100348.58
2019-01-12T06:59:27.105Z,100348.58
2019-01-12T07:01:54.760Z,100341.97
2019-01-12T07:04:22.751Z,100333.62
2019-01-12T07:06:50.447Z,100324.94
2019-01-12T07:09:18.077Z,100324.94
2019-01-12T07:11:46.144Z,100326.79
2019-01-12T07:14:13.788Z,100329.98
2019-01-12T07:17:00.303Z,100326.52
2019-01-12T07:19:28.244Z,100326.52
2019-01-12T07:21:55.944Z,100318.28
2019-01-12T07:24:23.628Z,100318.28
2019-01-12T07:27:10.169Z,100315.26
2019-01-12T07:29:37.881Z,100313.94
2019-01-12T07:32:07.513Z,100316.02
2019-01-12T07:34:54.012Z,100304.06
2019-01-12T07:37:21.646Z,100304.89
2019-01-12T07:40:08.148Z,100304.89
2019-01-12T07:42:35.830Z,100314.90
2019-01-12T07:45:22.379Z,100310.03
2019-01-12T07:47:50.008Z,100310.03
2019-01-12T07:50:36.523Z,100300.67
2019-01-12T07:53:04.227Z,100298.91
2019-01-12T07:55:31.859Z,100298.91
2019-01-12T07:58:18.366Z,100284.83
2019-01-12T08:00:46.093Z,100273.12
2019-01-12T08:03:13.788Z,100273.12
2019-01-12T08:05:42.206Z,100287.27
2019-01-12T08:08:09.937Z,100288.28
2019-01-12T08:10:37.573Z,100278.47
2019-01-12T08:13:05.643Z,100276.59
2019-01-12T08:15:33.643Z,100266.02
2019-01-12T08:18:01.362Z,100262.06
2019-01-12T08:20:47.845Z,100262.06
2019-01-12T08:23:15.564Z,100257.65
2019-01-12T08:25:43.541Z,100245.00
2019-01-12T08:28:11.256Z,100238.47
2019-01-12T08:30:38.956Z,100235.83
2019-01-12T08:33:06.890Z,100235.83
2019-01-12T08:35:53.416Z,100238.84
2019-01-12T08:38:22.348Z,100234.89
2019-01-12T08:40:50.033Z,100223.94
2019-01-12T08:43:17.837Z,100210.73
2019-01-12T08:45:45.930Z,100210.73
2019-01-12T08:48:13.700Z,100205.45
2019-01-12T08:50:41.410Z,100205.45
2019-01-12T08:53:09.514Z,100214.13
2019-01-12T08:55:37.251Z,100214.13
2019-01-12T08:58:04.951Z,100222.28
2019-01-12T09:00:32.900Z,100222.28
2019-01-12T09:03:00.540Z,100230.17
2019-01-12T09:05:28.734Z,100242.33
2019-01-12T09:07:56.752Z,100242.33
2019-01-12T09:10:24.465Z,100237.42
2019-01-12T09:12:52.208Z,100216.70
2019-01-12T09:15:24.640Z,100216.70
2019-01-12T09:17:52.701Z,100206.40
2019-01-12T09:20:20.431Z,100194.43
2019-01-12T09:22:50.256Z,100194.43
2019-01-12T09:25:17.937Z,100198.88
2019-01-12T09:27:45.845Z,100187.70
2019-01-12T09:30:32.381Z,100187.70
2019-01-12T09:35:48.623Z,100182.80
2019-01-12T09:38:16.320Z,100187.14
2019-01-12T09:40:46.612Z,100184.20
2019-01-12T09:43:14.549Z,100170.69
2019-01-12T09:45:42.203Z,100162.45
2019-01-12T09:48:24.611Z,100171.70
2019-01-12T09:50:39.683Z,100171.70
2019-01-12T09:53:07.406Z,100169.55
2019-01-12T09:55:35.079Z,100155.48
2019-01-12T09:58:03.176Z,100144.84
2019-01-12T10:00:34.173Z,100140.77
2019-01-12T10:03:04.332Z,100140.77
2019-01-12T10:05:36.899Z,100128.73
2019-01-12T10:08:03.967Z,100125.44
2019-01-12T10:10:31.623Z,100113.93
2019-01-12T10:12:59.801Z,100119.22
2019-01-12T10:15:27.490Z,100119.22
2019-01-12T10:17:55.160Z,100109.59
2019-01-12T10:20:23.273Z,100104.12
2019-01-12T10:25:25.498Z,100101.13
2019-01-12T10:27:53.418Z,100102.59
2019-01-12T10:30:21.185Z,100102.59
2019-01-12T10:32:48.863Z,100091.37
2019-01-12T10:35:35.399Z,100081.97
2019-01-12T10:38:05.900Z,100075.63
2019-01-12T10:40:33.742Z,100072.83
2019-01-12T10:43:02.073Z,100061.23
2019-01-12T10:45:29.817Z,100058.39
2019-01-12T10:50:32.140Z,100060.47
2019-01-12T10:53:15.210Z,100050.38
2019-01-12T10:55:38.688Z,100045.92
2019-01-12T10:58:33.149Z,100051.48
2019-01-12T11:01:06.768Z,100051.48
2019-01-12T11:03:37.486Z,100041.95
2019-01-12T11:06:33.361Z,100035.53
2019-01-12T11:09:21.082Z,100028.06
2019-01-12T11:12:07.246Z,100038.83
2019-01-12T11:14:35.375Z,100026.27
2019-01-12T11:17:06.667Z,100019.86
2019-01-12T11:19:39.747Z,100003.70
2019-01-12T11:22:07.401Z,100000.74
2019-01-12T11:24:35.438Z,99987.53
2019-01-12T11:27:12.426Z,99984.52
2019-01-12T11:32:14.183Z,99972.91
2019-01-12T11:34:43.573Z,99971.28
2019-01-12T11:37:11.343Z,99966.46
2019-01-12T11:39:39.324Z,99953.37
2019-01-12T11:42:07.044Z,99953.37
2019-01-12T11:44:34.724Z,99953.37
2019-01-12T11:47:02.761Z,99946.39
2019-01-12T11:49:30.481Z,99946.39
2019-01-12T11:51:58.135Z,99928.65
2019-01-12T11:54:26.162Z,99925.44
2019-01-12T11:56:53.916Z,99925.44
2019-01-12T11:59:21.544Z,99906.86
2019-01-12T12:01:49.583Z,99906.86
2019-01-12T12:04:17.338Z,99908.19
2019-01-12T12:06:45.003Z,99900.14
2019-01-12T12:09:31.522Z,99894.86
2019-01-12T12:11:59.605Z,99883.09
2019-01-12T12:14:27.730Z,99877.44
2019-01-12T12:16:55.844Z,99877.44
2019-01-12T12:19:23.671Z,99869.39
2019-01-12T12:22:10.228Z,99849.70
2019-01-12T12:24:38.240Z,99849.70
2019-01-12T12:27:05.944Z,99844.50
2019-01-12T12:29:33.702Z,99819.86
2019-01-12T12:32:01.891Z,99818.45
2019-01-12T12:34:29.868Z,99818.45
2019-01-12T12:36:57.605Z,99807.52
2019-01-12T12:39:28.814Z,99799.97
2019-01-12T12:41:56.923Z,99792.04
2019-01-12T12:44:24.656Z,99788.82
2019-01-12T12:46:52.688Z,99788.82
2019-01-12T12:49:20.430Z,99773.92
2019-01-12T12:52:00.923Z,99772.23
2019-01-12T12:54:17.716Z,99767.69
2019-01-12T12:56:45.421Z,99758.45
2019-01-12T12:59:16.677Z,99762.78
2019-01-12T13:01:44.891Z,99762.78
2019-01-12T13:04:12.569Z,99755.72
2019-01-12T13:06:40.268Z,99755.63
2019-01-12T13:09:08.501Z,99742.80
2019-01-12T13:11:36.211Z,99740.84
2019-01-12T13:14:04.039Z,99740.84
2019-01-12T13:16:32.051Z,99750.37
2019-01-12T13:18:59.670Z,99729.61
2019-01-12T13:21:27.373Z,99724.02
2019-01-12T13:23:56.893Z,99724.02
2019-01-12T13:26:24.565Z,99700.31
2019-01-12T13:28:52.199Z,99708.52
2019-01-12T13:31:26.700Z,99708.52
2019-01-12T13:33:54.431Z,99697.38
2019-01-12T13:36:22.421Z,99699.55
2019-01-12T13:38:50.054Z,99694.14
2019-01-12T13:41:17.900Z,99691.33
2019-01-12T13:43:47.610Z,99691.33
2019-01-12T13:46:15.292Z,99692.64
2019-01-12T13:48:47.141Z,99686.31
2019-01-12T13:51:12.807Z,99686.31
2019-01-12T13:53:40.499Z,99672.61
2019-01-12T13:56:08.598Z,99669.88
2019-01-12T13:58:36.633Z,99665.82
2019-01-12T14:01:04.291Z,99665.82
2019-01-12T14:03:31.986Z,99663.91
2019-01-12T14:05:59.983Z,99653.34
2019-01-12T14:08:27.670Z,99650.98
2019-01-12T14:10:55.333Z,99634.07
2019-01-12T14:13:24.851Z,99634.07
2019-01-12T14:15:54.088Z,99643.33
2019-01-12T14:18:22.704Z,99636.13
2019-01-12T14:20:50.852Z,99642.24
2019-01-12T14:23:18.506Z,99641.69
2019-01-12T14:25:49.010Z,99641.69
2019-01-12T14:31:09.483Z,99627.89
2019-01-12T14:34:00.170Z,99633.91
2019-01-12T14:36:30.816Z,99634.19
2019-01-12T14:38:59.095Z,99634.19
2019-01-12T14:41:32.220Z,99627.27
2019-01-12T14:43:59.972Z,99622.71
2019-01-12T14:46:48.359Z,99622.71
2019-01-12T14:49:15.981Z,99618.83
2019-01-12T14:51:43.821Z,99618.83
2019-01-12T14:54:30.278Z,99610.67
2019-01-12T14:56:57.987Z,99608.30
2019-01-12T14:59:27.322Z,99603.55
2019-01-12T15:01:57.166Z,99606.70
2019-01-12T15:04:28.410Z,99611.81
2019-01-12T15:06:59.035Z,99617.23
2019-01-12T15:09:37.326Z,99628.09
2019-01-12T15:12:04.983Z,99620.43
2019-01-12T15:14:41.224Z,99627.31
2019-01-12T15:17:08.953Z,99625.67
2019-01-12T15:19:36.579Z,99626.40
2019-01-12T15:22:04.664Z,99626.40
2019-01-12T15:24:53.494Z,99623.16
2019-01-12T15:27:21.529Z,99624.39
2019-01-12T15:29:49.192Z,99624.06
2019-01-12T15:32:16.940Z,99624.06
2019-01-12T15:34:46.605Z,99614.34
2019-01-12T15:37:14.287Z,99612.52
2019-01-12T15:39:41.960Z,99597.14
2019-01-12T15:42:11.413Z,99603.76
2019-01-12T15:44:39.567Z,99597.97
2019-01-12T15:47:26.088Z,99584.73
2019-01-12T15:49:53.790Z,99588.34
2019-01-12T15:52:23.404Z,99594.95
2019-01-12T15:54:53.120Z,99590.03
2019-01-12T15:57:20.852Z,99590.03
2019-01-12T15:59:50.141Z,99578.62
2019-01-12T16:02:18.264Z,99583.41
2019-01-12T16:04:50.856Z,99578.12
2019-01-12T16:07:18.475Z,99578.12
2019-01-12T16:09:46.680Z,99578.02
2019-01-12T16:12:16.245Z,99573.00
2019-01-12T16:14:43.921Z,99573.00
2019-01-12T16:17:11.978Z,99563.14
2019-01-12T16:19:39.685Z,99555.93
2019-01-12T16:24:55.711Z,99555.47
2019-01-12T16:27:23.737Z,99558.37
2019-01-12T16:29:51.867Z,99564.03
2019-01-12T16:32:22.026Z,99555.50
2019-01-12T16:34:49.745Z,99553.22
2019-01-12T16:37:17.574Z,99545.64
2019-01-12T16:39:45.751Z,99543.25
2019-01-12T16:42:22.651Z,99548.91
2019-01-12T16:44:53.346Z,99548.91
2019-01-12T16:49:56.253Z,99540.02
2019-01-12T16:52:46.331Z,99537.77
2019-01-12T16:55:14.033Z,99530.65
2019-01-12T16:57:43.563Z,99520.66
2019-01-12T17:00:11.390Z,99506.20
2019-01-12T17:02:42.002Z,99506.20
2019-01-12T17:05:10.158Z,99507.89
2019-01-12T17:07:37.815Z,99502.12
2019-01-12T17:10:05.435Z,99497.66
2019-01-12T17:12:35.086Z,99493.59
2019-01-12T17:15:02.809Z,99493.59
2019-01-12T17:17:30.442Z,99494.19
2019-01-12T17:20:01.062Z,99493.46
2019-01-12T17:22:28.734Z,99497.80
2019-01-12T17:24:56.513Z,99497.09
2019-01-12T17:27:24.505Z,99497.09
2019-01-12T17:29:52.208Z,99492.89
2019-01-12T17:32:19.854Z,99487.86
2019-01-12T17:34:47.898Z,99487.86
2019-01-12T17:37:15.589Z,99484.87
2019-01-12T17:39:43.308Z,99484.87
2019-01-12T17:42:29.773Z,99479.47
2019-01-12T17:44:57.486Z,99472.61
2019-01-12T17:47:25.496Z,99472.61
2019-01-12T17:49:53.600Z,99478.27
2019-01-12T17:52:22.912Z,99480.45
2019-01-12T17:54:50.929Z,99489.72
2019-01-12T17:57:18.639Z,99476.84
2019-01-12T17:59:46.382Z,99489.98
2019-01-12T18:02:14.995Z,99490.45
2019-01-12T18:04:42.700Z,99490.45
2019-01-12T18:07:10.708Z,99491.67
2019-01-12T18:09:57.239Z,99499.25
2019-01-12T18:12:24.947Z,99506.31
2019-01-12T18:14:52.764Z,99506.31
2019-01-12T18:17:21.085Z,99514.30
2019-01-12T18:19:48.817Z,99514.30
2019-01-12T18:22:16.437Z,99509.98
2019-01-12T18:24:44.632Z,99509.98
2019-01-12T18:27:12.368Z,99511.20
2019-01-12T18:29:40.083Z,99511.20
2019-01-12T18:32:26.567Z,99515.11
2019-01-12T18:34:54.318Z,99528.03
2019-01-12T18:37:22.024Z,99528.03
2019-01-12T18:39:50.060Z,99522.02
2019-01-12T18:42:17.780Z,99526.34
2019-01-12T18:44:45.429Z,99526.34
2019-01-12T18:50:09.480Z,99519.53
2019-01-12T18:52:37.172Z,99510.05
2019-01-12T18:55:07.855Z,99511.47
2019-01-12T18:57:37.181Z,99517.35
2019-01-12T19:03:10.457Z,99505.51
2019-01-12T19:05:59.719Z,99515.45
2019-01-12T19:08:44.554Z,99528.32
2019-01-12T19:13:56.381Z,99522.23
2019-01-12T19:16:24.127Z,99518.54
2019-01-12T19:21:41.648Z,99516.89
2019-01-12T19:24:09.309Z,99523.73
2019-01-12T19:26:38.344Z,99511.90
2019-01-12T19:29:06.909Z,99507.07
2019-01-12T19:31:36.937Z,99507.07
2019-01-12T19:34:04.660Z,99508.03
2019-01-12T19:36:32.770Z,99502.11
2019-01-12T19:39:00.509Z,99493.97
2019-01-12T19:41:30.430Z,99500.19
2019-01-12T19:44:19.487Z,99500.19
2019-01-12T19:46:47.230Z,99503.06
2019-01-12T19:49:15.307Z,99503.06
2019-01-12T19:51:43.272Z,99498.63
2019-01-12T19:54:11.025Z,99498.63
2019-01-12T19:56:57.496Z,99503.77
2019-01-12T20:02:00.413Z,99500.42
2019-01-12T20:07:09.130Z,99484.68
2019-01-12T20:09:36.776Z,99484.68
2019-01-12T20:12:04.561Z,99475.82
2019-01-12T20:14:32.705Z,99494.20
2019-01-12T20:19:48.620Z,99496.06
2019-01-12T20:22:16.295Z,99492.95
2019-01-12T20:24:44.025Z,99493.88
2019-01-12T20:27:33.699Z,99490.17
2019-01-12T20:30:18.646Z,99487.89
2019-01-12T20:33:05.190Z,99487.89
2019-01-12T20:35:32.808Z,99486.56
2019-01-12T20:38:00.536Z,99498.97
2019-01-12T20:40:47.046Z,99498.97
2019-01-12T20:43:14.994Z,99497.64
2019-01-12T20:45:43.351Z,99476.94
2019-01-12T20:48:23.133Z,99483.92
2019-01-12T20:50:44.578Z,99483.92
2019-01-12T20:53:14.874Z,99477.80
2019-01-12T20:55:42.573Z,99478.16
2019-01-12T20:58:10.227Z,99471.19
2019-01-12T21:01:09.696Z,99471.19
2019-01-12T21:03:26.028Z,99471.78
2019-01-12T21:06:12.523Z,99472.97
2019-01-12T21:08:40.283Z,99472.97
2019-01-12T21:11:08.214Z,99466.09
2019-01-12T21:13:36.179Z,99466.09
2019-01-12T21:16:03.923Z,99471.39
2019-01-12T21:18:50.327Z,99465.99
2019-01-12T21:23:54.221Z,99463.94
2019-01-12T21:26:40.704Z,99457.80
2019-01-12T21:29:08.562Z,99457.80
2019-01-12T21:34:27.600Z,99458.75
2019-01-12T21:36:55.231Z,99458.75
2019-01-12T21:39:34.699Z,99461.14
2019-01-12T21:42:11.063Z,99465.11
2019-01-12T21:44:38.756Z,99460.67
2019-01-12T21:47:06.495Z,99457.92
2019-01-12T21:49:34.502Z,99457.92
2019-01-12T21:52:04.613Z,99454.78
2019-01-12T21:54:51.053Z,99452.40
2019-01-12T21:57:18.749Z,99452.40
2019-01-12T21:59:46.567Z,99455.94
2019-01-12T22:05:21.571Z,99450.30
2019-01-12T22:08:08.089Z,99450.30
2019-01-12T22:10:35.719Z,99454.17
2019-01-12T22:13:03.788Z,99451.98
2019-01-12T22:15:50.340Z,99445.73
2019-01-12T22:18:36.777Z,99445.73
2019-01-12T22:21:04.573Z,99456.33
2019-01-12T22:23:51.084Z,99460.29
2019-01-12T22:26:19.104Z,99455.50
2019-01-12T22:28:46.834Z,99455.50
2019-01-12T22:31:33.284Z,99462.11
2019-01-12T22:34:01.003Z,99462.94
2019-01-12T22:36:28.677Z,99456.82
2019-01-12T22:39:15.222Z,99459.07
2019-01-12T22:41:45.512Z,99458.14
2019-01-12T22:44:13.450Z,99461.25
2019-01-12T22:46:41.070Z,99448.74
2019-01-12T22:49:09.204Z,99449.97
2019-01-12T22:51:42.699Z,99457.45
2019-01-12T22:54:10.402Z,99449.86
2019-01-12T22:56:38.026Z,99449.86
2019-01-12T22:59:24.563Z,99441.17
2019-01-12T23:01:52.363Z,99441.17
2019-01-12T23:04:20.462Z,99441.56
2019-01-12T23:07:02.219Z,99437.59
2019-01-12T23:09:19.517Z,99440.37
2019-01-12T23:11:47.236Z,99440.37
2019-01-12T23:14:15.236Z,99431.96
2019-01-12T23:16:42.865Z,99433.64
2019-01-12T23:22:03.421Z,99424.38
2019-01-12T23:24:31.116Z,99424.38
2019-01-12T23:27:10.832Z,99429.54
2019-01-12T23:29:28.444Z,99431.83
2019-01-12T23:31:56.138Z,99431.83
2019-01-12T23:34:24.116Z,99430.64
2019-01-12T23:36:51.862Z,99423.27
2019-01-12T23:42:12.810Z,99429.05
2019-01-12T23:44:40.502Z,99421.58
2019-01-12T23:47:08.483Z,99421.58
2019-01-12T23:49:36.130Z,99421.71
2019-01-12T23:52:03.825Z,99427.58
2019-01-12T23:54:34.633Z,99427.58
2019-01-12T23:57:02.290Z,99430.58
2019-01-12T23:59:29.955Z,99431.70
